Time;durP1;ratioP1;P1;durP2;ratioP2;P2;SDS_P1;SDS_P2;PMS_P1;PMS_P2;Temp;Humidity;BMP_temperature;BMP_pressure;BME280_temperature;BME280_humidity;BME280_pressure;Samples;Min_cycle;Max_cycle;Signal;HPM_P1;HPM_P2
2024/04/01 00:00:30;;;;;;;1.40;0.57;;;13.30;99.90;;;;;;5005304;28;20113;-59
2024/04/01 00:02:55;;;;;;;0.77;0.77;;;13.30;99.90;;;;;;5005047;28;20030;-59
2024/04/01 00:05:21;;;;;;;0.50;0.50;;;13.30;99.90;;;;;;5001984;28;20026;-58
2024/04/01 00:07:48;;;;;;;3.30;0.73;;;13.20;99.90;;;;;;4983830;28;20019;-60
2024/04/01 00:10:14;;;;;;;0.55;0.50;;;13.30;99.90;;;;;;5000837;28;20019;-56
2024/04/01 00:12:40;;;;;;;4.75;0.57;;;13.30;99.90;;;;;;4982850;28;20037;-57
2024/04/01 00:15:06;;;;;;;2.60;0.60;;;13.20;99.90;;;;;;4999844;28;20030;-58
2024/04/01 00:17:31;;;;;;;0.70;0.52;;;13.20;99.90;;;;;;4998969;28;20033;-56
2024/04/01 00:19:57;;;;;;;1.67;0.70;;;13.10;99.90;;;;;;4999384;28;20030;-62
2024/04/01 00:22:22;;;;;;;1.02;0.77;;;13.10;99.90;;;;;;4985576;28;20022;-60
2024/04/01 00:24:48;;;;;;;2.75;1.08;;;13.10;99.90;;;;;;4986690;28;20512;-60
2024/04/01 00:27:14;;;;;;;1.55;0.60;;;13.00;99.90;;;;;;4985777;28;20022;-59
2024/04/01 00:29:39;;;;;;;5.45;0.63;;;13.00;99.90;;;;;;5003347;28;20486;-61
2024/04/01 00:32:05;;;;;;;3.55;0.90;;;12.90;99.90;;;;;;5003133;28;20033;-58
2024/04/01 00:34:31;;;;;;;1.00;0.80;;;12.90;99.90;;;;;;5003842;28;20034;-62
2024/04/01 00:36:56;;;;;;;2.58;1.00;;;12.80;99.90;;;;;;4986398;28;20121;-59
2024/04/01 00:39:22;;;;;;;2.95;0.82;;;12.80;99.90;;;;;;4985899;28;20631;-57
2024/04/01 00:41:47;;;;;;;1.65;0.70;;;12.70;99.90;;;;;;5002386;28;20027;-58
2024/04/01 00:44:12;;;;;;;3.08;1.73;;;12.70;99.90;;;;;;4985790;28;20022;-61
2024/04/01 00:46:38;;;;;;;3.60;0.60;;;12.70;99.90;;;;;;4986237;28;20030;-62
2024/04/01 00:49:04;;;;;;;1.30;0.70;;;12.60;99.90;;;;;;5003367;28;20061;-61
2024/04/01 00:51:30;;;;;;;0.70;0.60;;;12.60;99.90;;;;;;5003028;28;20022;-59
2024/04/01 00:53:56;;;;;;;1.27;1.17;;;12.70;99.90;;;;;;5002204;28;20053;-61
2024/04/01 00:56:23;;;;;;;0.80;0.73;;;12.60;99.90;;;;;;5002678;28;20034;-60
2024/04/01 00:58:52;;;;;;;0.77;0.70;;;12.70;99.90;;;;;;5003139;28;20030;-62
2024/04/01 01:01:17;;;;;;;3.33;0.82;;;12.80;99.90;;;;;;5013145;23;20047;-47
2024/04/01 01:03:43;;;;;;;1.35;0.40;;;12.80;99.90;;;;;;4973216;28;20106;-49
2024/04/01 01:06:14;;;;;;;1.75;0.60;;;12.70;99.90;;;;;;4956338;28;20117;-50
2024/04/01 01:08:41;;;;;;;1.25;0.50;;;12.70;99.90;;;;;;4973136;28;20015;-49
2024/04/01 01:11:07;;;;;;;1.15;0.50;;;12.60;99.90;;;;;;4973321;28;20053;-53
2024/04/01 01:13:32;;;;;;;0.50;0.50;;;12.70;99.90;;;;;;4973275;28;20388;-48
2024/04/01 01:15:58;;;;;;;0.55;0.50;;;12.70;99.90;;;;;;4973237;28;20029;-48
2024/04/01 01:18:24;;;;;;;2.85;1.25;;;12.70;99.90;;;;;;4973112;28;20033;-51
2024/04/01 01:20:50;;;;;;;1.42;0.68;;;12.70;99.90;;;;;;4973030;28;20406;-51
2024/04/01 01:23:15;;;;;;;1.08;0.40;;;12.70;99.90;;;;;;4972369;28;20094;-49
2024/04/01 01:25:41;;;;;;;0.77;0.43;;;12.70;99.90;;;;;;4972881;28;20034;-48
2024/04/01 01:28:06;;;;;;;0.77;0.45;;;12.90;99.90;;;;;;4972841;28;20586;-48
2024/04/01 01:30:32;;;;;;;0.57;0.55;;;12.80;99.90;;;;;;4972830;28;20105;-53
2024/04/01 01:32:58;;;;;;;2.05;0.70;;;12.70;99.90;;;;;;4972875;28;20027;-50
2024/04/01 01:35:26;;;;;;;1.27;0.50;;;12.70;99.90;;;;;;4955582;28;20047;-51
2024/04/01 01:37:53;;;;;;;1.10;0.70;;;12.50;99.90;;;;;;4972665;28;20165;-49
2024/04/01 01:40:19;;;;;;;0.65;0.55;;;12.50;99.90;;;;;;4972564;28;20098;-50
2024/04/01 01:42:45;;;;;;;1.45;0.63;;;12.40;99.90;;;;;;4973051;28;20023;-51
2024/04/01 01:45:10;;;;;;;0.68;0.68;;;12.30;99.90;;;;;;4972969;28;20042;-52
2024/04/01 01:47:37;;;;;;;3.80;0.65;;;12.40;99.90;;;;;;4955207;28;20023;-53
2024/04/01 01:50:05;;;;;;;1.98;0.80;;;12.40;99.90;;;;;;4972808;28;20038;-51
2024/04/01 01:52:31;;;;;;;1.55;0.60;;;12.40;99.90;;;;;;4972757;28;20383;-51
2024/04/01 01:54:57;;;;;;;1.38;0.70;;;12.40;99.90;;;;;;4972888;28;20550;-49
2024/04/01 01:57:23;;;;;;;0.60;0.60;;;12.40;99.90;;;;;;4972620;28;20118;-52
2024/04/01 01:59:48;;;;;;;2.50;1.20;;;12.30;99.90;;;;;;4972984;28;20050;-54
2024/04/01 02:02:15;;;;;;;1.13;0.70;;;12.30;99.90;;;;;;4972540;28;20034;-48
2024/04/01 02:04:40;;;;;;;2.50;0.60;;;12.30;99.90;;;;;;4972559;28;20124;-49
2024/04/01 02:07:06;;;;;;;2.97;0.85;;;12.30;99.90;;;;;;4972617;28;20026;-51
2024/04/01 02:09:33;;;;;;;0.77;0.77;;;12.30;99.90;;;;;;4972452;28;20022;-49
2024/04/01 02:11:59;;;;;;;2.08;0.52;;;12.30;99.90;;;;;;4972728;28;20082;-49
2024/04/01 02:14:25;;;;;;;0.93;0.68;;;12.30;99.90;;;;;;4973570;28;20049;-54
2024/04/01 02:16:51;;;;;;;2.28;0.50;;;12.20;99.90;;;;;;4972849;28;20038;-50
2024/04/01 02:19:17;;;;;;;0.60;0.60;;;12.10;99.90;;;;;;4973210;28;20097;-48
2024/04/01 02:21:45;;;;;;;1.92;0.63;;;12.00;99.90;;;;;;4973239;28;20437;-50
2024/04/01 02:24:11;;;;;;;1.55;0.88;;;12.00;99.90;;;;;;4972499;28;20031;-49
2024/04/01 02:26:37;;;;;;;0.85;0.70;;;12.10;99.90;;;;;;4972614;28;20030;-51
2024/04/01 02:29:04;;;;;;;2.80;0.63;;;12.10;99.90;;;;;;4972151;28;20482;-51
2024/04/01 02:31:29;;;;;;;0.73;0.73;;;12.10;99.90;;;;;;4972245;28;20081;-53
2024/04/01 02:33:55;;;;;;;1.73;0.73;;;12.10;99.90;;;;;;4973396;28;20517;-50
2024/04/01 02:36:20;;;;;;;0.55;0.55;;;12.20;99.90;;;;;;4975800;28;20383;-48
2024/04/01 02:38:47;;;;;;;2.45;0.90;;;12.20;99.90;;;;;;4975602;28;20038;-51
2024/04/01 02:41:13;;;;;;;0.65;0.60;;;12.20;99.90;;;;;;4976305;28;20090;-53
2024/04/01 02:43:38;;;;;;;1.73;0.60;;;12.20;99.90;;;;;;4976575;28;20443;-53
2024/04/01 02:46:04;;;;;;;1.27;0.88;;;11.90;99.90;;;;;;4959258;28;20037;-52
2024/04/01 02:48:30;;;;;;;1.23;0.73;;;11.80;99.90;;;;;;4976715;28;20525;-46
2024/04/01 02:50:57;;;;;;;6.72;0.80;;;11.30;99.90;;;;;;4977191;28;20030;-49
2024/04/01 02:53:23;;;;;;;1.13;0.77;;;11.40;99.90;;;;;;4975690;28;20030;-51
2024/04/01 02:55:48;;;;;;;2.50;0.75;;;11.40;99.90;;;;;;4975646;28;20089;-53
2024/04/01 02:58:14;;;;;;;3.15;0.68;;;11.40;99.90;;;;;;4975616;28;20118;-49
2024/04/01 03:00:45;;;;;;;2.50;1.05;;;11.30;99.90;;;;;;4975226;28;20430;-49
2024/04/01 03:03:14;;;;;;;2.88;0.68;;;11.30;99.90;;;;;;4975714;28;20023;-50
2024/04/01 03:05:40;;;;;;;0.80;0.70;;;11.30;99.90;;;;;;4975676;28;20023;-50
2024/04/01 03:08:09;;;;;;;1.77;0.80;;;11.40;99.90;;;;;;4975336;28;20021;-50
2024/04/01 03:10:36;;;;;;;2.30;1.33;;;11.50;99.90;;;;;;4975190;28;20110;-50
2024/04/01 03:13:07;;;;;;;3.90;0.77;;;11.40;99.90;;;;;;4975280;28;20486;-52
2024/04/01 03:15:34;;;;;;;0.60;0.60;;;11.40;99.90;;;;;;4975798;28;20035;-50
2024/04/01 03:17:59;;;;;;;2.58;0.90;;;11.40;99.90;;;;;;4957904;28;20050;-52
2024/04/01 03:20:26;;;;;;;4.43;0.80;;;11.50;99.90;;;;;;4975245;28;20026;-47
2024/04/01 03:22:52;;;;;;;2.67;0.63;;;11.50;99.90;;;;;;4975097;28;20030;-50
2024/04/01 03:25:17;;;;;;;1.95;1.20;;;11.60;99.90;;;;;;4975007;28;20027;-49
2024/04/01 03:27:43;;;;;;;1.17;0.60;;;11.70;99.90;;;;;;4974866;28;20166;-51
2024/04/01 03:30:09;;;;;;;2.38;0.80;;;11.70;99.90;;;;;;4974861;28;20019;-49
2024/04/01 03:32:36;;;;;;;5.47;0.77;;;11.70;99.90;;;;;;4957328;28;20030;-48
2024/04/01 03:35:02;;;;;;;3.30;0.75;;;11.80;99.90;;;;;;4974951;28;20026;-53
2024/04/01 03:37:28;;;;;;;3.30;1.55;;;11.80;99.90;;;;;;4974654;28;20129;-50
2024/04/01 03:39:53;;;;;;;1.55;0.95;;;11.70;99.90;;;;;;4974666;28;20448;-49
2024/04/01 03:42:19;;;;;;;2.30;1.00;;;11.70;99.90;;;;;;4974854;28;20031;-51
2024/04/01 03:44:45;;;;;;;2.15;1.25;;;11.70;99.90;;;;;;4974671;28;20143;-51
2024/04/01 03:47:10;;;;;;;4.90;1.08;;;11.70;99.90;;;;;;4974157;28;20136;-50
2024/04/01 03:49:37;;;;;;;1.30;1.00;;;11.70;99.90;;;;;;4974740;28;20205;-48
2024/04/01 03:52:03;;;;;;;0.90;0.90;;;11.70;99.90;;;;;;4975028;28;20022;-49
2024/04/01 03:54:28;;;;;;;1.65;1.08;;;11.70;99.90;;;;;;4974604;28;20023;-54
2024/04/01 03:56:54;;;;;;;2.00;1.83;;;11.70;99.90;;;;;;4974490;28;20038;-45
2024/04/01 03:59:20;;;;;;;1.67;0.98;;;11.70;99.90;;;;;;4974519;28;20031;-46
2024/04/01 04:01:45;;;;;;;1.35;1.25;;;11.80;99.90;;;;;;4974246;28;20561;-54
2024/04/01 04:04:11;;;;;;;2.95;1.40;;;11.80;99.90;;;;;;4974305;28;20045;-53
2024/04/01 04:06:38;;;;;;;5.97;1.70;;;11.80;99.90;;;;;;4956989;28;20034;-50
2024/04/01 04:09:04;;;;;;;2.40;1.38;;;11.80;99.90;;;;;;4974148;28;20026;-48
2024/04/01 04:11:29;;;;;;;5.95;2.30;;;11.80;99.90;;;;;;4974292;28;20556;-54
2024/04/01 04:13:55;;;;;;;3.50;2.63;;;11.80;99.90;;;;;;4974248;28;20516;-51
2024/04/01 04:16:20;;;;;;;2.53;2.05;;;11.80;99.90;;;;;;4974192;28;20040;-51
2024/04/01 04:18:46;;;;;;;7.55;2.65;;;11.70;99.90;;;;;;4974022;28;20030;-50
2024/04/01 04:21:11;;;;;;;5.43;2.70;;;11.60;99.90;;;;;;4973914;28;20516;-49
2024/04/01 04:23:37;;;;;;;6.72;3.03;;;11.70;99.90;;;;;;4974054;28;20026;-48
2024/04/01 04:26:03;;;;;;;2.40;2.30;;;11.70;99.90;;;;;;4974045;28;20035;-49
2024/04/01 04:28:29;;;;;;;4.00;1.88;;;11.70;99.90;;;;;;4974107;28;20019;-48
2024/04/01 04:30:54;;;;;;;1.90;1.75;;;11.60;99.90;;;;;;4973926;28;20026;-50
2024/04/01 04:33:20;;;;;;;2.75;1.80;;;11.50;99.90;;;;;;4974392;28;20187;-54
2024/04/01 04:35:47;;;;;;;4.05;1.90;;;11.50;99.90;;;;;;4973762;28;20034;-46
2024/04/01 04:38:13;;;;;;;3.40;2.20;;;11.60;99.90;;;;;;4973617;28;20071;-50
2024/04/01 04:40:39;;;;;;;4.07;1.73;;;11.60;99.90;;;;;;4973543;28;20039;-51
2024/04/01 04:43:04;;;;;;;3.80;2.03;;;11.60;99.90;;;;;;4957165;28;20054;-51
2024/04/01 04:45:31;;;;;;;2.10;1.80;;;11.60;99.90;;;;;;4974778;28;20054;-49
2024/04/01 04:47:56;;;;;;;4.63;1.70;;;11.60;99.90;;;;;;4956811;28;20019;-51
2024/04/01 04:50:22;;;;;;;3.42;1.95;;;11.70;99.90;;;;;;4974267;28;20027;-49
2024/04/01 04:52:48;;;;;;;2.03;1.92;;;11.70;99.90;;;;;;4956052;28;20026;-47
2024/04/01 04:55:14;;;;;;;5.25;2.30;;;11.70;99.90;;;;;;4973657;28;20030;-49
2024/04/01 04:57:40;;;;;;;6.65;2.85;;;11.80;99.90;;;;;;4973202;28;20105;-51
2024/04/01 05:00:20;;;;;;;3.63;2.50;;;11.80;99.90;;;;;;4973406;28;20111;-51
2024/04/01 05:02:47;;;;;;;3.80;3.40;;;11.80;99.90;;;;;;4973188;28;20121;-47
2024/04/01 05:05:14;;;;;;;5.30;3.83;;;11.70;99.90;;;;;;4973255;28;20034;-49
2024/04/01 05:07:40;;;;;;;7.47;4.55;;;11.70;99.90;;;;;;4972967;28;20022;-49
2024/04/01 05:10:06;;;;;;;5.72;5.05;;;11.60;99.90;;;;;;4973221;28;20038;-52
2024/04/01 05:12:31;;;;;;;5.60;5.10;;;11.60;99.90;;;;;;4973037;28;20023;-51
2024/04/01 05:14:57;;;;;;;7.55;5.50;;;11.60;99.90;;;;;;4973168;28;20522;-48
2024/04/01 05:17:22;;;;;;;6.15;5.15;;;11.50;99.90;;;;;;4973380;28;20065;-51
2024/04/01 05:19:48;;;;;;;5.15;4.57;;;11.40;99.90;;;;;;4973415;28;20393;-49
2024/04/01 05:22:13;;;;;;;8.40;4.68;;;11.40;99.90;;;;;;4973024;28;20023;-49
2024/04/01 05:24:40;;;;;;;6.22;4.43;;;11.40;99.90;;;;;;4973086;28;20117;-48
2024/04/01 05:27:05;;;;;;;4.25;3.58;;;11.40;99.90;;;;;;4972886;28;20114;-52
2024/04/01 05:29:31;;;;;;;7.05;4.13;;;11.40;99.90;;;;;;4972645;28;20113;-47
2024/04/01 05:31:56;;;;;;;5.78;3.78;;;11.50;99.90;;;;;;4972888;28;20449;-51
2024/04/01 05:34:24;;;;;;;6.18;3.25;;;11.50;99.90;;;;;;4955975;28;20038;-51
2024/04/01 05:36:49;;;;;;;7.45;3.08;;;11.50;99.90;;;;;;4973171;28;20114;-49
2024/04/01 05:39:15;;;;;;;6.70;3.05;;;11.30;99.90;;;;;;4973130;28;20518;-48
2024/04/01 05:41:40;;;;;;;4.18;3.33;;;11.30;99.90;;;;;;4972988;28;20042;-52
2024/04/01 05:44:06;;;;;;;2.70;2.50;;;11.30;99.90;;;;;;4972721;28;20372;-50
2024/04/01 05:46:31;;;;;;;7.22;2.92;;;11.30;99.90;;;;;;4972724;28;20023;-50
2024/04/01 05:48:57;;;;;;;8.68;3.58;;;11.30;99.90;;;;;;4972500;28;20086;-53
2024/04/01 05:51:22;;;;;;;4.18;2.67;;;11.40;99.90;;;;;;4972815;28;20105;-51
2024/04/01 05:53:49;;;;;;;3.17;2.47;;;11.30;99.90;;;;;;4972753;28;20479;-50
2024/04/01 05:56:15;;;;;;;5.28;2.90;;;11.30;99.90;;;;;;4972600;28;20038;-53
2024/04/01 05:58:41;;;;;;;2.53;2.28;;;11.30;99.90;;;;;;4972387;28;20386;-51
2024/04/01 06:01:07;;;;;;;3.20;2.20;;;11.20;99.90;;;;;;4972585;28;20062;-48
2024/04/01 06:03:32;;;;;;;3.67;2.35;;;11.20;99.90;;;;;;4973172;28;20112;-50
2024/04/01 06:05:59;;;;;;;4.13;1.67;;;11.20;99.90;;;;;;4956529;28;20019;-49
2024/04/01 06:08:24;;;;;;;5.78;2.03;;;11.30;99.90;;;;;;4973754;28;20030;-51
2024/04/01 06:10:50;;;;;;;2.13;1.83;;;11.40;99.90;;;;;;4977164;28;20482;-50
2024/04/01 06:13:15;;;;;;;2.10;2.00;;;11.40;99.90;;;;;;4978080;28;20027;-53
2024/04/01 06:15:42;;;;;;;2.25;2.15;;;11.40;99.90;;;;;;4977260;28;20027;-51
2024/04/01 06:18:08;;;;;;;2.95;2.25;;;11.40;99.90;;;;;;4976280;28;20049;-49
2024/04/01 06:20:33;;;;;;;3.53;1.48;;;11.50;99.90;;;;;;4976620;28;20027;-49
2024/04/01 06:22:59;;;;;;;5.53;1.65;;;11.40;99.90;;;;;;4976892;28;20426;-48
2024/04/01 06:25:24;;;;;;;2.22;1.70;;;11.30;99.90;;;;;;4958832;28;20450;-48
2024/04/01 06:27:50;;;;;;;2.38;1.45;;;11.30;99.90;;;;;;4959113;28;20030;-50
2024/04/01 06:30:15;;;;;;;1.10;1.10;;;11.20;99.90;;;;;;4976761;28;20027;-48
2024/04/01 06:32:41;;;;;;;4.18;0.95;;;11.10;99.90;;;;;;4976872;28;20071;-51
2024/04/01 06:35:07;;;;;;;1.05;0.80;;;11.10;99.90;;;;;;4977131;28;20117;-51
2024/04/01 06:37:34;;;;;;;2.42;1.17;;;11.00;99.90;;;;;;4976797;28;20324;-53
2024/04/01 06:40:00;;;;;;;1.10;1.10;;;11.00;99.90;;;;;;4976209;28;20030;-49
2024/04/01 06:42:26;;;;;;;1.65;1.00;;;11.10;99.90;;;;;;4976671;28;20057;-49
2024/04/01 06:44:51;;;;;;;2.42;1.33;;;11.10;99.90;;;;;;4976202;28;20029;-50
2024/04/01 06:47:17;;;;;;;1.20;1.10;;;11.10;99.90;;;;;;4975713;28;20062;-50
2024/04/01 06:49:42;;;;;;;1.45;1.13;;;11.10;99.90;;;;;;4958638;28;20023;-51
2024/04/01 06:52:09;;;;;;;1.50;1.40;;;11.10;99.90;;;;;;4975883;28;20049;-49
2024/04/01 06:54:35;;;;;;;1.38;1.27;;;11.20;99.90;;;;;;4958606;28;20089;-49
2024/04/01 06:57:02;;;;;;;1.58;1.40;;;11.10;99.90;;;;;;4975859;28;20086;-48
2024/04/01 06:59:28;;;;;;;1.45;1.20;;;11.10;99.90;;;;;;4975690;28;20027;-50
2024/04/01 07:01:53;;;;;;;1.10;1.00;;;11.10;99.90;;;;;;4958860;28;20466;-53
2024/04/01 07:04:19;;;;;;;1.55;1.27;;;11.20;99.90;;;;;;4975680;28;20058;-51
2024/04/01 07:06:44;;;;;;;1.00;1.00;;;11.10;99.90;;;;;;4975419;28;20054;-48
2024/04/01 07:09:10;;;;;;;1.23;0.88;;;11.10;99.90;;;;;;4975062;28;20023;-48
2024/04/01 07:11:36;;;;;;;5.07;1.13;;;11.10;99.90;;;;;;4975335;28;20027;-48
2024/04/01 07:14:01;;;;;;;0.95;0.95;;;11.10;99.90;;;;;;4975333;28;20545;-50
2024/04/01 07:16:26;;;;;;;1.15;0.93;;;11.10;99.90;;;;;;4975299;28;20035;-49
2024/04/01 07:18:52;;;;;;;1.25;1.17;;;11.10;99.90;;;;;;4974904;28;20030;-54
2024/04/01 07:21:18;;;;;;;0.90;0.90;;;11.10;99.90;;;;;;4973912;28;20118;-49
2024/04/01 07:23:46;;;;;;;0.82;0.82;;;11.10;99.90;;;;;;4975072;28;20022;-49
2024/04/01 07:26:12;;;;;;;1.80;0.75;;;11.10;99.90;;;;;;4957911;28;20509;-48
2024/04/01 07:28:37;;;;;;;1.13;0.82;;;11.10;99.90;;;;;;4957553;28;20019;-49
2024/04/01 07:31:05;;;;;;;0.70;0.70;;;11.10;99.90;;;;;;4975402;28;20026;-48
2024/04/01 07:33:30;;;;;;;0.90;0.90;;;11.20;99.90;;;;;;4975114;28;20027;-51
2024/04/01 07:35:56;;;;;;;1.00;1.00;;;11.20;99.90;;;;;;4974831;28;20379;-49
2024/04/01 07:38:21;;;;;;;0.63;0.63;;;11.20;99.90;;;;;;4974843;28;20033;-49
2024/04/01 07:40:47;;;;;;;0.80;0.68;;;11.20;99.90;;;;;;4974409;28;20101;-49
2024/04/01 07:43:12;;;;;;;0.60;0.60;;;11.20;99.90;;;;;;4974783;28;20039;-47
2024/04/01 07:45:38;;;;;;;0.40;0.40;;;11.20;99.90;;;;;;4957498;28;20027;-48
2024/04/01 07:48:04;;;;;;;0.57;0.57;;;11.10;99.90;;;;;;4974247;28;20029;-47
2024/04/01 07:50:30;;;;;;;0.50;0.50;;;11.10;99.90;;;;;;4974907;28;20406;-46
2024/04/01 07:52:55;;;;;;;0.43;0.43;;;11.10;99.90;;;;;;4974983;28;20113;-49
2024/04/01 07:55:21;;;;;;;0.75;0.52;;;11.10;99.90;;;;;;4974639;28;20451;-51
2024/04/01 07:57:46;;;;;;;1.00;0.50;;;11.10;99.90;;;;;;4957338;28;20031;-51
2024/04/01 08:00:12;;;;;;;0.40;0.40;;;11.10;99.90;;;;;;4957168;28;20023;-48
2024/04/01 08:02:38;;;;;;;1.17;0.47;;;11.10;99.90;;;;;;4956858;28;20398;-48
2024/04/01 08:05:03;;;;;;;3.42;0.40;;;11.10;99.90;;;;;;4975103;28;20110;-52
2024/04/01 08:07:29;;;;;;;0.40;0.40;;;11.20;99.90;;;;;;4974452;28;20085;-49
2024/04/01 08:09:54;;;;;;;0.45;0.45;;;11.10;99.90;;;;;;4974332;28;20115;-48
2024/04/01 08:12:20;;;;;;;0.52;0.52;;;11.10;99.90;;;;;;4974319;28;20070;-50
2024/04/01 08:14:45;;;;;;;1.70;0.50;;;11.00;99.90;;;;;;4974202;28;20069;-47
2024/04/01 08:17:11;;;;;;;0.35;0.35;;;11.00;99.90;;;;;;4957062;28;20393;-51
2024/04/01 08:19:37;;;;;;;0.65;0.40;;;11.00;99.90;;;;;;4974222;28;20034;-49
2024/04/01 08:22:02;;;;;;;1.10;0.50;;;10.90;99.90;;;;;;4974182;28;20065;-50
2024/04/01 08:24:28;;;;;;;2.85;0.47;;;10.90;99.90;;;;;;4974203;28;20509;-51
2024/04/01 08:26:53;;;;;;;0.55;0.40;;;10.90;99.90;;;;;;4974620;28;20042;-49
2024/04/01 08:29:19;;;;;;;0.90;0.60;;;10.90;99.90;;;;;;4956943;28;20023;-51
2024/04/01 08:31:44;;;;;;;0.70;0.50;;;10.90;99.90;;;;;;4974219;28;20526;-53
2024/04/01 08:34:10;;;;;;;0.45;0.45;;;10.90;99.90;;;;;;4956809;28;20023;-51
2024/04/01 08:36:36;;;;;;;0.30;0.30;;;10.90;99.90;;;;;;4974095;28;20026;-50
2024/04/01 08:39:02;;;;;;;0.40;0.40;;;10.90;99.90;;;;;;4973412;28;20018;-47
2024/04/01 08:41:32;;;;;;;0.63;0.40;;;10.90;99.90;;;;;;4973471;28;20027;-48
2024/04/01 08:44:15;;;;;;;0.63;0.50;;;10.90;99.90;;;;;;4973724;28;20041;-52
2024/04/01 08:46:48;;;;;;;0.30;0.30;;;10.90;99.90;;;;;;4956585;28;20034;-50
2024/04/01 08:49:14;;;;;;;0.55;0.38;;;10.90;99.90;;;;;;4955822;28;20027;-49
2024/04/01 08:51:42;;;;;;;0.50;0.40;;;11.00;99.90;;;;;;4973488;28;20074;-50
2024/04/01 08:54:09;;;;;;;2.47;0.40;;;11.00;99.90;;;;;;4973339;28;20483;-50
2024/04/01 08:56:40;;;;;;;0.40;0.40;;;11.00;99.90;;;;;;4973354;28;20037;-49
2024/04/01 08:59:09;;;;;;;0.93;0.57;;;11.00;99.90;;;;;;4973057;28;20029;-52
2024/04/01 09:01:35;;;;;;;0.80;0.50;;;11.10;99.90;;;;;;4955781;28;20037;-51
2024/04/01 09:04:02;;;;;;;0.63;0.63;;;11.00;99.90;;;;;;4973216;28;20077;-48
2024/04/01 09:06:28;;;;;;;1.85;0.60;;;11.10;99.90;;;;;;4956096;28;20022;-47
2024/04/01 09:08:55;;;;;;;0.50;0.50;;;11.10;99.90;;;;;;4973033;28;20019;-50
2024/04/01 09:11:25;;;;;;;0.40;0.40;;;11.10;99.90;;;;;;4972972;28;20031;-47
2024/04/01 09:13:51;;;;;;;1.65;0.40;;;11.10;99.90;;;;;;4955778;28;20054;-50
2024/04/01 09:16:25;;;;;;;0.40;0.40;;;11.20;99.90;;;;;;4973170;28;20223;-51
2024/04/01 09:18:51;;;;;;;1.25;0.57;;;11.20;99.90;;;;;;4972947;28;20045;-49
2024/04/01 09:21:18;;;;;;;0.45;0.45;;;11.10;99.90;;;;;;4972900;28;20022;-49
2024/04/01 09:23:44;;;;;;;0.30;0.30;;;11.10;99.90;;;;;;4973109;28;20019;-48
2024/04/01 09:26:10;;;;;;;0.30;0.30;;;11.00;99.90;;;;;;4972973;28;20023;-49
2024/04/01 09:28:35;;;;;;;1.00;0.30;;;11.10;99.90;;;;;;4972726;28;20029;-48
2024/04/01 09:31:01;;;;;;;0.40;0.40;;;11.20;99.90;;;;;;4956424;28;20023;-51
2024/04/01 09:33:27;;;;;;;0.30;0.30;;;11.20;99.90;;;;;;4973136;28;20034;-52
2024/04/01 09:35:53;;;;;;;0.43;0.40;;;11.20;99.90;;;;;;4973535;28;20507;-50
2024/04/01 09:38:19;;;;;;;0.40;0.30;;;11.20;99.90;;;;;;4955869;28;20046;-49
2024/04/01 09:40:51;;;;;;;0.35;0.35;;;11.30;99.90;;;;;;4971648;28;20035;-51
2024/04/01 09:43:27;;;;;;;0.25;0.25;;;11.30;99.90;;;;;;4968544;28;20030;-49
2024/04/01 09:45:53;;;;;;;0.40;0.40;;;11.30;99.90;;;;;;4991980;28;20088;-51
2024/04/01 09:48:22;;;;;;;0.52;0.30;;;11.20;99.90;;;;;;4974574;28;20022;-51
2024/04/01 09:50:49;;;;;;;0.30;0.30;;;11.20;99.90;;;;;;4992041;28;20486;-52
2024/04/01 09:53:15;;;;;;;0.35;0.30;;;11.30;99.90;;;;;;4992546;28;20486;-47
2024/04/01 09:56:01;;;;;;;0.30;0.30;;;11.20;99.90;;;;;;4989163;28;20386;-50
2024/04/01 09:59:05;;;;;;;0.40;0.40;;;11.20;99.90;;;;;;4904884;28;20521;-48
2024/04/01 10:02:01;;;;;;;0.28;0.28;;;11.20;99.90;;;;;;4978027;28;20093;-50
2024/04/01 10:05:10;;;;;;;0.40;0.40;;;11.20;99.90;;;;;;4971857;28;20023;-51
2024/04/01 10:07:56;;;;;;;2.88;0.40;;;11.20;99.90;;;;;;4972351;28;20065;-47
2024/04/01 10:10:53;;;;;;;1.17;0.60;;;11.20;99.90;;;;;;4975153;28;20106;-50
2024/04/01 10:13:43;;;;;;;3.10;0.90;;;11.30;99.90;;;;;;4992042;28;20014;-48
2024/04/01 10:16:29;;;;;;;0.70;0.50;;;11.20;99.90;;;;;;4991905;28;20027;-53
2024/04/01 10:19:06;;;;;;;0.63;0.63;;;11.30;99.90;;;;;;4991600;28;20027;-47
2024/04/01 10:21:52;;;;;;;0.52;0.52;;;11.40;99.90;;;;;;4992315;28;20022;-49
2024/04/01 10:24:54;;;;;;;1.17;0.90;;;11.30;99.90;;;;;;4990701;28;20027;-48
2024/04/01 10:28:05;;;;;;;2.45;0.68;;;11.30;99.90;;;;;;4991437;28;20193;-51
2024/04/01 10:31:02;;;;;;;0.60;0.60;;;11.20;99.90;;;;;;4986544;28;20066;-53
2024/04/01 10:34:10;;;;;;;0.70;0.70;;;11.30;99.90;;;;;;4992002;28;20026;-50
2024/04/01 10:37:03;;;;;;;0.50;0.50;;;11.30;99.90;;;;;;4974685;28;20026;-47
2024/04/01 10:39:59;;;;;;;1.63;0.70;;;11.30;99.90;;;;;;4991781;28;20027;-48
2024/04/01 10:42:57;;;;;;;0.45;0.45;;;11.30;99.90;;;;;;4990498;28;20486;-53
2024/04/01 10:45:41;;;;;;;0.50;0.40;;;11.30;99.90;;;;;;4991751;28;20030;-50
2024/04/01 10:48:20;;;;;;;0.40;0.40;;;11.20;99.90;;;;;;4991674;28;20389;-49
2024/04/01 10:51:19;;;;;;;2.85;0.57;;;11.20;99.90;;;;;;4991649;28;20018;-52
2024/04/01 10:53:56;;;;;;;0.85;0.50;;;11.30;99.90;;;;;;4991668;28;20019;-49
2024/04/01 10:56:50;;;;;;;1.67;0.80;;;11.30;99.90;;;;;;4992640;28;20030;-51
2024/04/01 10:59:27;;;;;;;9.63;7.15;;;11.40;99.90;;;;;;4956226;29;20062;-51
2024/04/01 11:02:20;;;;;;;2.70;2.03;;;11.30;99.90;;;;;;4977812;28;20088;-49
2024/04/01 11:05:27;;;;;;;8.90;5.18;;;11.30;99.90;;;;;;4994594;28;20026;-53
2024/04/01 11:08:11;;;;;;;0.90;0.90;;;11.40;99.90;;;;;;4967232;28;20173;-47
2024/04/01 11:10:41;;;;;;;0.43;0.43;;;11.40;99.90;;;;;;4956727;29;20032;-51
2024/04/01 11:13:22;;;;;;;0.57;0.57;;;11.40;99.90;;;;;;4945846;28;20033;-50
2024/04/01 11:15:54;;;;;;;0.50;0.50;;;11.30;99.90;;;;;;4973252;28;20490;-46
2024/04/01 11:18:37;;;;;;;0.63;0.50;;;11.30;99.90;;;;;;4957667;28;20023;-56
2024/04/01 11:21:37;;;;;;;0.40;0.40;;;11.40;99.90;;;;;;4975578;28;20034;-52
2024/04/01 11:24:39;;;;;;;0.95;0.52;;;11.30;99.90;;;;;;4970306;28;20129;-52
2024/04/01 11:27:13;;;;;;;0.57;0.57;;;11.30;99.90;;;;;;4956843;28;20038;-49
2024/04/01 11:29:50;;;;;;;4.53;1.15;;;11.30;99.90;;;;;;4954384;28;20038;-50
2024/04/01 11:32:17;;;;;;;1.92;1.48;;;11.20;99.90;;;;;;4989355;28;20084;-50
2024/04/01 11:34:45;;;;;;;1.02;0.77;;;11.20;99.90;;;;;;4992753;28;20030;-48
2024/04/01 11:37:20;;;;;;;0.90;0.90;;;11.30;99.90;;;;;;4991279;28;20033;-47
2024/04/01 11:39:50;;;;;;;1.95;0.70;;;11.30;99.90;;;;;;4994179;28;20031;-46
2024/04/01 11:42:19;;;;;;;0.70;0.70;;;11.30;99.90;;;;;;4994008;28;20405;-51
2024/04/01 11:44:46;;;;;;;1.10;0.85;;;11.30;99.90;;;;;;4993706;28;20041;-46
2024/04/01 11:47:13;;;;;;;5.50;1.23;;;11.20;99.90;;;;;;4993905;28;20114;-49
2024/04/01 11:49:40;;;;;;;0.60;0.60;;;11.20;99.90;;;;;;4994104;28;20025;-46
2024/04/01 11:52:17;;;;;;;2.08;0.65;;;11.20;99.90;;;;;;4994229;28;20342;-49
2024/04/01 11:54:43;;;;;;;1.60;0.70;;;11.10;99.90;;;;;;4993817;28;20102;-47
2024/04/01 11:57:10;;;;;;;0.52;0.52;;;11.20;99.90;;;;;;4993724;28;20036;-47
2024/04/01 11:59:36;;;;;;;1.83;0.85;;;11.30;99.90;;;;;;4993619;28;20116;-44
2024/04/01 12:02:12;;;;;;;0.80;0.80;;;11.30;99.90;;;;;;4993834;28;20053;-49
2024/04/01 12:04:37;;;;;;;0.40;0.40;;;11.30;99.90;;;;;;4993762;28;20037;-46
2024/04/01 12:07:04;;;;;;;0.20;0.20;;;11.20;99.90;;;;;;4975837;28;20034;-51
2024/04/01 12:09:32;;;;;;;0.77;0.70;;;11.10;99.90;;;;;;4993713;28;20061;-46
2024/04/01 12:11:59;;;;;;;0.40;0.40;;;11.00;99.90;;;;;;4993793;28;20227;-48
2024/04/01 12:14:28;;;;;;;2.67;0.77;;;10.90;99.90;;;;;;4993515;28;20402;-48
2024/04/01 12:16:58;;;;;;;0.57;0.50;;;10.90;99.90;;;;;;4993789;28;20096;-50
2024/04/01 12:19:25;;;;;;;0.43;0.40;;;10.80;99.90;;;;;;4993372;28;20042;-48
2024/04/01 12:21:51;;;;;;;0.50;0.50;;;10.80;99.90;;;;;;4993027;28;20050;-46
2024/04/01 12:24:18;;;;;;;0.40;0.40;;;10.70;99.90;;;;;;4974023;28;20512;-50
2024/04/01 12:26:49;;;;;;;0.40;0.40;;;10.70;99.90;;;;;;4960630;28;20045;-46
2024/04/01 12:29:15;;;;;;;0.30;0.30;;;10.70;99.90;;;;;;4973629;28;20019;-48
2024/04/01 12:32:02;;;;;;;0.82;0.82;;;10.70;99.90;;;;;;4983261;28;20057;-51
2024/04/01 12:34:35;;;;;;;1.92;0.57;;;10.70;99.90;;;;;;4992348;28;20035;-47
2024/04/01 12:37:02;;;;;;;2.05;0.70;;;10.80;99.90;;;;;;4991191;28;20451;-46
2024/04/01 12:39:29;;;;;;;0.38;0.38;;;10.70;99.90;;;;;;4990482;28;20030;-48
2024/04/01 12:41:54;;;;;;;0.50;0.50;;;10.60;99.90;;;;;;4994821;28;20027;-50
2024/04/01 12:44:20;;;;;;;1.92;0.60;;;10.60;99.90;;;;;;4994802;28;20034;-51
2024/04/01 12:46:49;;;;;;;0.95;0.57;;;10.70;99.90;;;;;;4994437;28;20033;-47
2024/04/01 12:49:15;;;;;;;10.65;7.47;;;10.80;99.90;;;;;;4994581;28;20050;-47
2024/04/01 12:51:43;;;;;;;16.73;10.50;;;10.80;99.90;;;;;;4996629;28;20026;-46
2024/04/01 12:54:30;;;;;;;0.75;0.60;;;10.90;99.90;;;;;;4994477;28;20035;-46